sensor_id;sensor_type;location;lat;lon;timestamp;temperature;humidity
15143;DHT22;7672;50.834;6.286;2023-05-29T00:00:49;17.00;99.90
15143;DHT22;7672;50.834;6.286;2023-05-29T00:03:16;17.10;99.90
15143;DHT22;7672;50.834;6.286;2023-05-29T00:05:44;16.90;99.90
15143;DHT22;7672;50.834;6.286;2023-05-29T00:08:11;16.90;99.90
15143;DHT22;7672;50.834;6.286;2023-05-29T00:10:38;17.00;99.90
15143;DHT22;7672;50.834;6.286;2023-05-29T00:13:07;16.80;99.90
15143;DHT22;7672;50.834;6.286;2023-05-29T00:15:34;16.80;99.90
15143;DHT22;7672;50.834;6.286;2023-05-29T00:18:02;16.70;99.90
15143;DHT22;7672;50.834;6.286;2023-05-29T00:20:29;16.70;99.90
15143;DHT22;7672;50.834;6.286;2023-05-29T00:22:56;16.70;99.90
15143;DHT22;7672;50.834;6.286;2023-05-29T00:25:24;16.70;99.90
15143;DHT22;7672;50.834;6.286;2023-05-29T00:27:51;16.70;99.90
15143;DHT22;7672;50.834;6.286;2023-05-29T00:30:18;16.70;99.90
15143;DHT22;7672;50.834;6.286;2023-05-29T00:32:45;16.70;99.90
15143;DHT22;7672;50.834;6.286;2023-05-29T00:35:14;16.90;99.90
15143;DHT22;7672;50.834;6.286;2023-05-29T00:37:41;16.60;99.90
15143;DHT22;7672;50.834;6.286;2023-05-29T00:40:08;16.50;99.90
15143;DHT22;7672;50.834;6.286;2023-05-29T00:42:37;16.50;99.90
15143;DHT22;7672;50.834;6.286;2023-05-29T00:45:05;16.20;99.90
15143;DHT22;7672;50.834;6.286;2023-05-29T00:47:32;16.40;99.90
15143;DHT22;7672;50.834;6.286;2023-05-29T00:50:00;16.50;99.90
15143;DHT22;7672;50.834;6.286;2023-05-29T00:52:29;16.40;99.90
15143;DHT22;7672;50.834;6.286;2023-05-29T00:54:56;16.30;99.90
15143;DHT22;7672;50.834;6.286;2023-05-29T00:57:24;16.30;99.90
15143;DHT22;7672;50.834;6.286;2023-05-29T00:59:51;16.30;99.90
15143;DHT22;7672;50.834;6.286;2023-05-29T01:02:19;16.20;99.90
15143;DHT22;7672;50.834;6.286;2023-05-29T01:04:47;16.20;99.90
15143;DHT22;7672;50.834;6.286;2023-05-29T01:07:15;16.10;99.90
15143;DHT22;7672;50.834;6.286;2023-05-29T01:09:42;16.10;99.90
15143;DHT22;7672;50.834;6.286;2023-05-29T01:12:36;16.10;99.90
15143;DHT22;7672;50.834;6.286;2023-05-29T01:18:27;16.00;99.90
15143;DHT22;7672;50.834;6.286;2023-05-29T01:21:08;16.00;99.90
15143;DHT22;7672;50.834;6.286;2023-05-29T01:23:40;15.90;99.90
15143;DHT22;7672;50.834;6.286;2023-05-29T01:26:55;16.00;99.90
15143;DHT22;7672;50.834;6.286;2023-05-29T01:29:29;15.80;99.90
15143;DHT22;7672;50.834;6.286;2023-05-29T01:32:01;15.80;99.90
15143;DHT22;7672;50.834;6.286;2023-05-29T01:34:29;15.80;99.90
15143;DHT22;7672;50.834;6.286;2023-05-29T01:36:56;15.80;99.90
15143;DHT22;7672;50.834;6.286;2023-05-29T01:39:24;15.70;99.90
15143;DHT22;7672;50.834;6.286;2023-05-29T01:41:53;15.60;99.90
15143;DHT22;7672;50.834;6.286;2023-05-29T01:44:22;15.60;99.90
15143;DHT22;7672;50.834;6.286;2023-05-29T01:46:50;15.60;99.90
15143;DHT22;7672;50.834;6.286;2023-05-29T01:49:18;15.50;99.90
15143;DHT22;7672;50.834;6.286;2023-05-29T01:51:47;15.50;99.90
15143;DHT22;7672;50.834;6.286;2023-05-29T01:54:15;15.50;99.90
15143;DHT22;7672;50.834;6.286;2023-05-29T01:56:42;15.40;99.90
15143;DHT22;7672;50.834;6.286;2023-05-29T01:59:12;15.40;99.90
15143;DHT22;7672;50.834;6.286;2023-05-29T02:01:40;15.40;99.90
15143;DHT22;7672;50.834;6.286;2023-05-29T02:04:08;15.40;99.90
15143;DHT22;7672;50.834;6.286;2023-05-29T02:06:35;15.40;99.90
15143;DHT22;7672;50.834;6.286;2023-05-29T02:09:02;15.30;99.90
15143;DHT22;7672;50.834;6.286;2023-05-29T02:11:30;15.30;99.90
15143;DHT22;7672;50.834;6.286;2023-05-29T02:13:57;15.30;99.90
15143;DHT22;7672;50.834;6.286;2023-05-29T02:16:24;15.30;99.90
15143;DHT22;7672;50.834;6.286;2023-05-29T02:18:55;15.20;99.90
15143;DHT22;7672;50.834;6.286;2023-05-29T02:21:22;15.20;99.90
15143;DHT22;7672;50.834;6.286;2023-05-29T02:23:49;15.20;99.90
15143;DHT22;7672;50.834;6.286;2023-05-29T02:26:16;15.20;99.90
15143;DHT22;7672;50.834;6.286;2023-05-29T02:28:43;15.10;99.90
15143;DHT22;7672;50.834;6.286;2023-05-29T02:31:10;15.10;99.90
15143;DHT22;7672;50.834;6.286;2023-05-29T02:33:38;15.10;99.90
15143;DHT22;7672;50.834;6.286;2023-05-29T02:36:05;15.10;99.90
15143;DHT22;7672;50.834;6.286;2023-05-29T02:38:36;15.00;99.90
15143;DHT22;7672;50.834;6.286;2023-05-29T02:41:05;15.10;99.90
15143;DHT22;7672;50.834;6.286;2023-05-29T02:43:32;15.00;99.90
15143;DHT22;7672;50.834;6.286;2023-05-29T02:45:59;14.90;99.90
15143;DHT22;7672;50.834;6.286;2023-05-29T02:48:27;14.90;99.90
15143;DHT22;7672;50.834;6.286;2023-05-29T02:50:54;14.90;99.90
15143;DHT22;7672;50.834;6.286;2023-05-29T02:53:21;14.90;99.90
15143;DHT22;7672;50.834;6.286;2023-05-29T02:55:48;14.80;99.90
15143;DHT22;7672;50.834;6.286;2023-05-29T02:58:17;14.80;99.90
15143;DHT22;7672;50.834;6.286;2023-05-29T03:00:47;14.70;99.90
15143;DHT22;7672;50.834;6.286;2023-05-29T03:03:15;14.70;99.90
15143;DHT22;7672;50.834;6.286;2023-05-29T03:05:42;14.60;99.90
15143;DHT22;7672;50.834;6.286;2023-05-29T03:08:09;14.60;99.90
15143;DHT22;7672;50.834;6.286;2023-05-29T03:10:37;14.60;99.90
15143;DHT22;7672;50.834;6.286;2023-05-29T03:13:04;14.60;99.90
15143;DHT22;7672;50.834;6.286;2023-05-29T03:15:34;14.50;99.90
15143;DHT22;7672;50.834;6.286;2023-05-29T03:18:01;14.40;99.90
15143;DHT22;7672;50.834;6.286;2023-05-29T03:20:29;14.40;99.90
15143;DHT22;7672;50.834;6.286;2023-05-29T03:22:58;14.40;99.90
15143;DHT22;7672;50.834;6.286;2023-05-29T03:25:25;14.30;99.90
15143;DHT22;7672;50.834;6.286;2023-05-29T03:27:52;14.30;99.90
15143;DHT22;7672;50.834;6.286;2023-05-29T03:30:20;14.30;99.90
15143;DHT22;7672;50.834;6.286;2023-05-29T03:32:49;14.20;99.90
15143;DHT22;7672;50.834;6.286;2023-05-29T03:35:17;14.20;99.90
15143;DHT22;7672;50.834;6.286;2023-05-29T03:37:44;14.20;99.90
15143;DHT22;7672;50.834;6.286;2023-05-29T03:40:12;14.40;99.90
15143;DHT22;7672;50.834;6.286;2023-05-29T03:42:39;14.10;99.90
15143;DHT22;7672;50.834;6.286;2023-05-29T03:45:07;14.10;99.90
15143;DHT22;7672;50.834;6.286;2023-05-29T03:47:37;14.00;99.90
15143;DHT22;7672;50.834;6.286;2023-05-29T03:50:05;14.00;99.90
15143;DHT22;7672;50.834;6.286;2023-05-29T03:52:35;14.00;99.90
15143;DHT22;7672;50.834;6.286;2023-05-29T03:55:05;14.00;99.90
15143;DHT22;7672;50.834;6.286;2023-05-29T03:57:36;13.90;99.90
15143;DHT22;7672;50.834;6.286;2023-05-29T04:00:03;14.00;99.90
15143;DHT22;7672;50.834;6.286;2023-05-29T04:02:39;13.90;99.90
15143;DHT22;7672;50.834;6.286;2023-05-29T04:05:08;13.90;99.90
15143;DHT22;7672;50.834;6.286;2023-05-29T04:07:41;13.90;99.90
15143;DHT22;7672;50.834;6.286;2023-05-29T04:10:09;13.90;99.90
15143;DHT22;7672;50.834;6.286;2023-05-29T04:12:36;13.90;99.90
15143;DHT22;7672;50.834;6.286;2023-05-29T04:15:04;14.20;99.90
15143;DHT22;7672;50.834;6.286;2023-05-29T04:17:32;14.00;99.90
15143;DHT22;7672;50.834;6.286;2023-05-29T04:19:59;14.00;99.90
15143;DHT22;7672;50.834;6.286;2023-05-29T04:22:30;14.00;99.90
15143;DHT22;7672;50.834;6.286;2023-05-29T04:24:57;14.10;99.90
15143;DHT22;7672;50.834;6.286;2023-05-29T04:27:24;14.20;99.90
15143;DHT22;7672;50.834;6.286;2023-05-29T04:29:52;14.60;99.90
15143;DHT22;7672;50.834;6.286;2023-05-29T04:32:21;14.30;99.90
15143;DHT22;7672;50.834;6.286;2023-05-29T04:34:48;14.40;99.90
15143;DHT22;7672;50.834;6.286;2023-05-29T04:37:16;14.50;99.90
15143;DHT22;7672;50.834;6.286;2023-05-29T04:39:43;14.60;99.90
15143;DHT22;7672;50.834;6.286;2023-05-29T04:42:16;14.90;99.90
15143;DHT22;7672;50.834;6.286;2023-05-29T04:44:43;14.70;99.90
15143;DHT22;7672;50.834;6.286;2023-05-29T04:47:10;15.20;99.90
15143;DHT22;7672;50.834;6.286;2023-05-29T04:49:39;15.00;99.90
15143;DHT22;7672;50.834;6.286;2023-05-29T04:52:07;15.10;99.90
15143;DHT22;7672;50.834;6.286;2023-05-29T04:54:34;15.30;99.90
15143;DHT22;7672;50.834;6.286;2023-05-29T04:57:02;15.40;99.90
15143;DHT22;7672;50.834;6.286;2023-05-29T04:59:33;15.50;99.90
15143;DHT22;7672;50.834;6.286;2023-05-29T05:02:00;15.60;99.90
15143;DHT22;7672;50.834;6.286;2023-05-29T05:04:28;15.70;99.90
15143;DHT22;7672;50.834;6.286;2023-05-29T05:06:55;16.00;99.90
15143;DHT22;7672;50.834;6.286;2023-05-29T05:09:23;15.90;99.90
15143;DHT22;7672;50.834;6.286;2023-05-29T05:11:51;15.90;99.90
15143;DHT22;7672;50.834;6.286;2023-05-29T05:14:19;16.10;99.90
15143;DHT22;7672;50.834;6.286;2023-05-29T05:16:46;16.20;99.90
15143;DHT22;7672;50.834;6.286;2023-05-29T05:19:14;16.30;99.90
15143;DHT22;7672;50.834;6.286;2023-05-29T05:21:43;16.50;99.90
15143;DHT22;7672;50.834;6.286;2023-05-29T05:24:10;16.60;99.90
15143;DHT22;7672;50.834;6.286;2023-05-29T05:26:39;16.70;99.90
15143;DHT22;7672;50.834;6.286;2023-05-29T05:29:06;16.80;99.90
15143;DHT22;7672;50.834;6.286;2023-05-29T05:31:35;16.90;99.90
15143;DHT22;7672;50.834;6.286;2023-05-29T05:34:02;17.00;99.90
15143;DHT22;7672;50.834;6.286;2023-05-29T05:36:29;17.00;99.90
15143;DHT22;7672;50.834;6.286;2023-05-29T05:39:04;17.20;99.90
15143;DHT22;7672;50.834;6.286;2023-05-29T05:41:33;17.30;99.90
15143;DHT22;7672;50.834;6.286;2023-05-29T05:44:01;17.40;99.90
15143;DHT22;7672;50.834;6.286;2023-05-29T05:46:34;17.70;99.90
15143;DHT22;7672;50.834;6.286;2023-05-29T05:49:02;17.60;99.90
15143;DHT22;7672;50.834;6.286;2023-05-29T05:51:30;17.80;99.90
15143;DHT22;7672;50.834;6.286;2023-05-29T05:53:57;17.80;99.90
15143;DHT22;7672;50.834;6.286;2023-05-29T05:56:25;18.00;99.90
15143;DHT22;7672;50.834;6.286;2023-05-29T05:58:52;18.00;99.90
15143;DHT22;7672;50.834;6.286;2023-05-29T06:01:20;18.10;99.90
15143;DHT22;7672;50.834;6.286;2023-05-29T06:03:48;18.20;99.90
15143;DHT22;7672;50.834;6.286;2023-05-29T06:06:16;18.30;99.90
15143;DHT22;7672;50.834;6.286;2023-05-29T06:08:45;18.40;99.90
15143;DHT22;7672;50.834;6.286;2023-05-29T06:11:14;18.60;99.90
15143;DHT22;7672;50.834;6.286;2023-05-29T06:13:44;18.50;99.90
15143;DHT22;7672;50.834;6.286;2023-05-29T06:16:20;18.60;99.90
15143;DHT22;7672;50.834;6.286;2023-05-29T06:18:47;18.60;99.90
15143;DHT22;7672;50.834;6.286;2023-05-29T06:21:16;18.70;99.90
15143;DHT22;7672;50.834;6.286;2023-05-29T06:23:50;18.60;99.90
15143;DHT22;7672;50.834;6.286;2023-05-29T06:26:17;18.90;99.90
15143;DHT22;7672;50.834;6.286;2023-05-29T06:28:44;19.00;99.90
15143;DHT22;7672;50.834;6.286;2023-05-29T06:31:12;19.00;99.90
15143;DHT22;7672;50.834;6.286;2023-05-29T06:33:39;19.20;99.90
15143;DHT22;7672;50.834;6.286;2023-05-29T06:36:07;19.30;99.90
15143;DHT22;7672;50.834;6.286;2023-05-29T06:38:35;19.40;99.90
15143;DHT22;7672;50.834;6.286;2023-05-29T06:41:02;19.60;99.90
15143;DHT22;7672;50.834;6.286;2023-05-29T06:43:30;19.80;99.90
15143;DHT22;7672;50.834;6.286;2023-05-29T06:45:57;20.00;99.90
15143;DHT22;7672;50.834;6.286;2023-05-29T06:48:24;20.00;99.90
15143;DHT22;7672;50.834;6.286;2023-05-29T06:50:51;20.30;99.90
15143;DHT22;7672;50.834;6.286;2023-05-29T06:53:38;20.30;99.90
15143;DHT22;7672;50.834;6.286;2023-05-29T06:56:07;20.30;99.90
15143;DHT22;7672;50.834;6.286;2023-05-29T06:58:34;20.30;99.90
15143;DHT22;7672;50.834;6.286;2023-05-29T07:01:02;20.50;99.90
15143;DHT22;7672;50.834;6.286;2023-05-29T07:03:35;20.60;99.90
15143;DHT22;7672;50.834;6.286;2023-05-29T07:06:04;20.80;99.90
15143;DHT22;7672;50.834;6.286;2023-05-29T07:08:32;20.90;99.90
15143;DHT22;7672;50.834;6.286;2023-05-29T07:11:01;20.90;99.90
15143;DHT22;7672;50.834;6.286;2023-05-29T07:13:29;21.10;99.90
15143;DHT22;7672;50.834;6.286;2023-05-29T07:15:56;21.30;99.90
15143;DHT22;7672;50.834;6.286;2023-05-29T07:18:29;21.40;99.90
15143;DHT22;7672;50.834;6.286;2023-05-29T07:21:00;21.50;99.90
15143;DHT22;7672;50.834;6.286;2023-05-29T07:23:29;21.60;99.90
15143;DHT22;7672;50.834;6.286;2023-05-29T07:25:58;21.70;99.90
15143;DHT22;7672;50.834;6.286;2023-05-29T07:28:28;21.80;99.90
15143;DHT22;7672;50.834;6.286;2023-05-29T07:30:55;22.00;99.90
15143;DHT22;7672;50.834;6.286;2023-05-29T07:33:23;22.20;99.90
15143;DHT22;7672;50.834;6.286;2023-05-29T07:35:52;22.40;99.90
15143;DHT22;7672;50.834;6.286;2023-05-29T07:38:20;22.70;99.90
15143;DHT22;7672;50.834;6.286;2023-05-29T07:40:48;23.10;99.90
15143;DHT22;7672;50.834;6.286;2023-05-29T07:43:26;23.50;99.90
15143;DHT22;7672;50.834;6.286;2023-05-29T07:45:59;23.80;99.90
15143;DHT22;7672;50.834;6.286;2023-05-29T07:48:27;24.30;99.90
15143;DHT22;7672;50.834;6.286;2023-05-29T07:50:55;24.70;99.90
15143;DHT22;7672;50.834;6.286;2023-05-29T07:53:24;25.10;99.90
15143;DHT22;7672;50.834;6.286;2023-05-29T07:55:51;25.60;99.90
15143;DHT22;7672;50.834;6.286;2023-05-29T07:58:19;26.10;99.90
15143;DHT22;7672;50.834;6.286;2023-05-29T08:00:47;26.50;99.90
15143;DHT22;7672;50.834;6.286;2023-05-29T08:03:15;26.90;99.90
15143;DHT22;7672;50.834;6.286;2023-05-29T08:06:01;27.40;99.90
15143;DHT22;7672;50.834;6.286;2023-05-29T08:08:29;27.80;99.90
15143;DHT22;7672;50.834;6.286;2023-05-29T08:10:57;28.10;99.70
15143;DHT22;7672;50.834;6.286;2023-05-29T08:13:24;28.50;98.50
15143;DHT22;7672;50.834;6.286;2023-05-29T08:15:53;28.80;98.60
15143;DHT22;7672;50.834;6.286;2023-05-29T08:18:20;29.10;97.20
15143;DHT22;7672;50.834;6.286;2023-05-29T08:20:47;29.40;96.40
15143;DHT22;7672;50.834;6.286;2023-05-29T08:23:15;29.70;95.40
15143;DHT22;7672;50.834;6.286;2023-05-29T08:25:43;30.00;94.20
15143;DHT22;7672;50.834;6.286;2023-05-29T08:28:10;30.20;93.50
15143;DHT22;7672;50.834;6.286;2023-05-29T08:30:38;30.40;93.10
15143;DHT22;7672;50.834;6.286;2023-05-29T08:33:05;30.50;91.90
15143;DHT22;7672;50.834;6.286;2023-05-29T08:35:32;30.60;91.60
15143;DHT22;7672;50.834;6.286;2023-05-29T08:38:00;30.60;91.50
15143;DHT22;7672;50.834;6.286;2023-05-29T08:40:27;30.70;90.60
15143;DHT22;7672;50.834;6.286;2023-05-29T08:43:02;30.80;91.20
15143;DHT22;7672;50.834;6.286;2023-05-29T08:45:42;30.90;89.50
15143;DHT22;7672;50.834;6.286;2023-05-29T08:48:11;31.10;90.00
15143;DHT22;7672;50.834;6.286;2023-05-29T08:50:44;31.10;87.90
15143;DHT22;7672;50.834;6.286;2023-05-29T08:53:13;31.10;87.10
15143;DHT22;7672;50.834;6.286;2023-05-29T08:55:42;31.10;87.90
15143;DHT22;7672;50.834;6.286;2023-05-29T08:58:09;31.10;87.80
15143;DHT22;7672;50.834;6.286;2023-05-29T09:00:39;31.20;86.40
15143;DHT22;7672;50.834;6.286;2023-05-29T09:03:07;31.20;86.70
15143;DHT22;7672;50.834;6.286;2023-05-29T09:05:35;31.20;87.90
15143;DHT22;7672;50.834;6.286;2023-05-29T09:08:09;31.30;87.80
15143;DHT22;7672;50.834;6.286;2023-05-29T09:10:42;31.40;86.00
15143;DHT22;7672;50.834;6.286;2023-05-29T09:13:11;31.60;85.00
15143;DHT22;7672;50.834;6.286;2023-05-29T09:15:41;31.70;85.00
15143;DHT22;7672;50.834;6.286;2023-05-29T09:18:11;31.70;84.50
15143;DHT22;7672;50.834;6.286;2023-05-29T09:20:38;31.70;85.00
15143;DHT22;7672;50.834;6.286;2023-05-29T09:23:08;31.70;84.10
15143;DHT22;7672;50.834;6.286;2023-05-29T09:25:40;31.70;83.60
15143;DHT22;7672;50.834;6.286;2023-05-29T09:28:11;31.70;82.20
15143;DHT22;7672;50.834;6.286;2023-05-29T09:30:41;31.70;83.90
15143;DHT22;7672;50.834;6.286;2023-05-29T09:33:14;31.70;81.90
15143;DHT22;7672;50.834;6.286;2023-05-29T09:35:47;31.60;82.30
15143;DHT22;7672;50.834;6.286;2023-05-29T09:38:17;31.50;81.70
15143;DHT22;7672;50.834;6.286;2023-05-29T09:40:47;31.40;84.00
15143;DHT22;7672;50.834;6.286;2023-05-29T09:43:16;31.40;83.50
15143;DHT22;7672;50.834;6.286;2023-05-29T09:45:48;31.40;83.50
15143;DHT22;7672;50.834;6.286;2023-05-29T09:48:18;31.50;84.50
15143;DHT22;7672;50.834;6.286;2023-05-29T09:50:50;31.60;84.10
15143;DHT22;7672;50.834;6.286;2023-05-29T09:53:22;31.60;82.60
15143;DHT22;7672;50.834;6.286;2023-05-29T09:55:53;31.70;81.80
15143;DHT22;7672;50.834;6.286;2023-05-29T09:58:22;31.70;82.50
15143;DHT22;7672;50.834;6.286;2023-05-29T10:00:51;31.80;83.20
15143;DHT22;7672;50.834;6.286;2023-05-29T10:03:19;31.80;83.30
15143;DHT22;7672;50.834;6.286;2023-05-29T10:05:53;31.80;83.80
15143;DHT22;7672;50.834;6.286;2023-05-29T10:08:25;31.70;81.60
15143;DHT22;7672;50.834;6.286;2023-05-29T10:11:02;31.70;80.10
15143;DHT22;7672;50.834;6.286;2023-05-29T10:13:35;31.50;82.80
15143;DHT22;7672;50.834;6.286;2023-05-29T10:16:08;31.30;80.60
15143;DHT22;7672;50.834;6.286;2023-05-29T10:18:42;31.20;81.40
15143;DHT22;7672;50.834;6.286;2023-05-29T10:21:12;30.90;81.90
15143;DHT22;7672;50.834;6.286;2023-05-29T10:23:47;30.70;81.70
15143;DHT22;7672;50.834;6.286;2023-05-29T10:26:20;30.50;81.40
15143;DHT22;7672;50.834;6.286;2023-05-29T10:35:14;30.20;83.70
15143;DHT22;7672;50.834;6.286;2023-05-29T10:40:47;30.00;83.90
15143;DHT22;7672;50.834;6.286;2023-05-29T10:43:47;30.00;84.30
15143;DHT22;7672;50.834;6.286;2023-05-29T10:46:14;29.90;84.20
15143;DHT22;7672;50.834;6.286;2023-05-29T10:48:42;29.90;85.40
15143;DHT22;7672;50.834;6.286;2023-05-29T10:51:25;29.90;83.70
15143;DHT22;7672;50.834;6.286;2023-05-29T10:53:54;29.80;83.80
15143;DHT22;7672;50.834;6.286;2023-05-29T10:56:22;29.70;84.00
15143;DHT22;7672;50.834;6.286;2023-05-29T10:58:55;29.60;84.10
15143;DHT22;7672;50.834;6.286;2023-05-29T11:01:28;29.40;83.10
15143;DHT22;7672;50.834;6.286;2023-05-29T11:06:43;29.10;83.60
15143;DHT22;7672;50.834;6.286;2023-05-29T11:12:24;28.70;85.30
15143;DHT22;7672;50.834;6.286;2023-05-29T11:15:02;28.60;86.90
15143;DHT22;7672;50.834;6.286;2023-05-29T11:20:06;28.40;85.80
15143;DHT22;7672;50.834;6.286;2023-05-29T11:25:27;28.50;88.00
15143;DHT22;7672;50.834;6.286;2023-05-29T11:27:55;28.40;87.30
15143;DHT22;7672;50.834;6.286;2023-05-29T11:30:22;28.20;88.10
15143;DHT22;7672;50.834;6.286;2023-05-29T11:32:49;28.10;87.40
15143;DHT22;7672;50.834;6.286;2023-05-29T11:35:21;28.00;89.30
15143;DHT22;7672;50.834;6.286;2023-05-29T11:37:49;27.80;89.40
15143;DHT22;7672;50.834;6.286;2023-05-29T11:40:18;27.80;89.10
15143;DHT22;7672;50.834;6.286;2023-05-29T11:42:46;27.90;90.00
15143;DHT22;7672;50.834;6.286;2023-05-29T11:45:20;27.70;88.90
15143;DHT22;7672;50.834;6.286;2023-05-29T11:50:23;27.70;90.60
15143;DHT22;7672;50.834;6.286;2023-05-29T11:52:52;27.60;90.30
15143;DHT22;7672;50.834;6.286;2023-05-29T11:55:20;27.50;90.00
15143;DHT22;7672;50.834;6.286;2023-05-29T11:57:59;27.60;89.20
15143;DHT22;7672;50.834;6.286;2023-05-29T12:00:37;27.50;89.20
15143;DHT22;7672;50.834;6.286;2023-05-29T12:03:05;27.50;90.40
15143;DHT22;7672;50.834;6.286;2023-05-29T12:05:48;27.40;88.90
15143;DHT22;7672;50.834;6.286;2023-05-29T12:08:17;27.30;90.20
15143;DHT22;7672;50.834;6.286;2023-05-29T12:10:48;27.30;90.00
15143;DHT22;7672;50.834;6.286;2023-05-29T12:13:18;27.20;89.90
15143;DHT22;7672;50.834;6.286;2023-05-29T12:15:47;27.10;88.80
15143;DHT22;7672;50.834;6.286;2023-05-29T12:18:15;26.90;90.00
15143;DHT22;7672;50.834;6.286;2023-05-29T12:20:42;26.80;89.90
15143;DHT22;7672;50.834;6.286;2023-05-29T12:23:10;26.70;90.20
15143;DHT22;7672;50.834;6.286;2023-05-29T12:25:38;26.70;89.70
15143;DHT22;7672;50.834;6.286;2023-05-29T12:28:06;26.50;90.90
15143;DHT22;7672;50.834;6.286;2023-05-29T12:30:37;26.30;90.60
15143;DHT22;7672;50.834;6.286;2023-05-29T12:33:05;26.40;90.30
15143;DHT22;7672;50.834;6.286;2023-05-29T12:35:33;26.30;90.50
15143;DHT22;7672;50.834;6.286;2023-05-29T12:38:02;26.30;90.60
15143;DHT22;7672;50.834;6.286;2023-05-29T12:40:32;26.20;91.20
15143;DHT22;7672;50.834;6.286;2023-05-29T12:43:07;26.20;91.40
15143;DHT22;7672;50.834;6.286;2023-05-29T12:45:37;26.10;90.90
15143;DHT22;7672;50.834;6.286;2023-05-29T12:48:06;26.00;90.50
15143;DHT22;7672;50.834;6.286;2023-05-29T12:50:37;26.00;90.80
15143;DHT22;7672;50.834;6.286;2023-05-29T12:53:09;25.90;90.60
15143;DHT22;7672;50.834;6.286;2023-05-29T12:55:40;25.80;90.90
15143;DHT22;7672;50.834;6.286;2023-05-29T12:58:12;25.80;90.80
15143;DHT22;7672;50.834;6.286;2023-05-29T13:00:43;25.60;91.30
15143;DHT22;7672;50.834;6.286;2023-05-29T13:03:12;25.50;91.60
15143;DHT22;7672;50.834;6.286;2023-05-29T13:05:39;25.40;92.30
15143;DHT22;7672;50.834;6.286;2023-05-29T13:08:07;25.40;92.00
15143;DHT22;7672;50.834;6.286;2023-05-29T13:10:35;25.40;92.10
15143;DHT22;7672;50.834;6.286;2023-05-29T13:13:02;25.30;91.90
15143;DHT22;7672;50.834;6.286;2023-05-29T13:15:30;25.20;92.00
15143;DHT22;7672;50.834;6.286;2023-05-29T13:17:59;25.00;92.10
15143;DHT22;7672;50.834;6.286;2023-05-29T13:20:26;25.10;92.00
15143;DHT22;7672;50.834;6.286;2023-05-29T13:22:53;25.00;92.40
15143;DHT22;7672;50.834;6.286;2023-05-29T13:25:21;24.90;92.90
15143;DHT22;7672;50.834;6.286;2023-05-29T13:27:50;24.90;93.00
15143;DHT22;7672;50.834;6.286;2023-05-29T13:30:18;24.90;92.70
15143;DHT22;7672;50.834;6.286;2023-05-29T13:32:45;24.90;92.90
15143;DHT22;7672;50.834;6.286;2023-05-29T13:35:12;24.80;92.90
15143;DHT22;7672;50.834;6.286;2023-05-29T13:37:40;24.80;93.30
15143;DHT22;7672;50.834;6.286;2023-05-29T13:40:07;24.80;94.60
15143;DHT22;7672;50.834;6.286;2023-05-29T13:42:38;24.70;93.10
15143;DHT22;7672;50.834;6.286;2023-05-29T13:45:07;24.70;93.80
15143;DHT22;7672;50.834;6.286;2023-05-29T13:47:35;24.70;94.20
15143;DHT22;7672;50.834;6.286;2023-05-29T13:50:04;24.70;94.20
15143;DHT22;7672;50.834;6.286;2023-05-29T13:52:32;24.80;94.30
15143;DHT22;7672;50.834;6.286;2023-05-29T13:54:59;24.80;94.10
15143;DHT22;7672;50.834;6.286;2023-05-29T13:57:31;24.90;93.40
15143;DHT22;7672;50.834;6.286;2023-05-29T13:59:58;24.80;93.90
15143;DHT22;7672;50.834;6.286;2023-05-29T14:02:26;24.70;93.50
15143;DHT22;7672;50.834;6.286;2023-05-29T14:04:53;24.70;93.30
15143;DHT22;7672;50.834;6.286;2023-05-29T14:07:20;24.60;93.30
15143;DHT22;7672;50.834;6.286;2023-05-29T14:09:47;24.70;93.30
15143;DHT22;7672;50.834;6.286;2023-05-29T14:12:15;24.60;93.50
15143;DHT22;7672;50.834;6.286;2023-05-29T14:14:42;24.60;93.40
15143;DHT22;7672;50.834;6.286;2023-05-29T14:17:09;24.60;93.60
15143;DHT22;7672;50.834;6.286;2023-05-29T14:19:36;24.60;93.60
15143;DHT22;7672;50.834;6.286;2023-05-29T14:22:03;24.60;93.90
15143;DHT22;7672;50.834;6.286;2023-05-29T14:24:31;24.50;94.40
15143;DHT22;7672;50.834;6.286;2023-05-29T14:26:58;24.50;93.90
15143;DHT22;7672;50.834;6.286;2023-05-29T14:29:25;24.60;94.20
15143;DHT22;7672;50.834;6.286;2023-05-29T14:31:53;24.50;94.70
15143;DHT22;7672;50.834;6.286;2023-05-29T14:34:20;24.50;93.90
15143;DHT22;7672;50.834;6.286;2023-05-29T14:36:47;24.50;93.70
15143;DHT22;7672;50.834;6.286;2023-05-29T14:39:14;24.50;94.30
15143;DHT22;7672;50.834;6.286;2023-05-29T14:41:41;24.50;94.40
15143;DHT22;7672;50.834;6.286;2023-05-29T14:44:08;24.50;94.40
15143;DHT22;7672;50.834;6.286;2023-05-29T14:46:36;24.40;93.90
15143;DHT22;7672;50.834;6.286;2023-05-29T14:49:03;24.40;94.60
15143;DHT22;7672;50.834;6.286;2023-05-29T14:51:30;24.50;94.50
15143;DHT22;7672;50.834;6.286;2023-05-29T14:53:57;24.40;94.00
15143;DHT22;7672;50.834;6.286;2023-05-29T14:56:24;24.30;94.10
15143;DHT22;7672;50.834;6.286;2023-05-29T14:58:51;24.40;93.90
15143;DHT22;7672;50.834;6.286;2023-05-29T15:01:19;24.40;93.90
15143;DHT22;7672;50.834;6.286;2023-05-29T15:03:47;24.30;94.00
15143;DHT22;7672;50.834;6.286;2023-05-29T15:06:14;24.30;93.80
15143;DHT22;7672;50.834;6.286;2023-05-29T15:08:41;24.20;94.30
15143;DHT22;7672;50.834;6.286;2023-05-29T15:11:10;24.20;94.10
15143;DHT22;7672;50.834;6.286;2023-05-29T15:13:39;23.90;94.50
15143;DHT22;7672;50.834;6.286;2023-05-29T15:16:07;24.00;94.00
15143;DHT22;7672;50.834;6.286;2023-05-29T15:18:35;23.90;94.70
15143;DHT22;7672;50.834;6.286;2023-05-29T15:21:02;23.90;94.40
15143;DHT22;7672;50.834;6.286;2023-05-29T15:23:31;23.80;94.30
15143;DHT22;7672;50.834;6.286;2023-05-29T15:26:01;23.70;94.50
15143;DHT22;7672;50.834;6.286;2023-05-29T15:28:29;23.80;95.10
15143;DHT22;7672;50.834;6.286;2023-05-29T15:30:56;23.70;94.90
15143;DHT22;7672;50.834;6.286;2023-05-29T15:33:24;23.70;95.20
15143;DHT22;7672;50.834;6.286;2023-05-29T15:35:51;23.70;94.90
15143;DHT22;7672;50.834;6.286;2023-05-29T15:38:18;23.60;94.70
15143;DHT22;7672;50.834;6.286;2023-05-29T15:40:46;23.60;95.20
15143;DHT22;7672;50.834;6.286;2023-05-29T15:43:13;23.50;95.20
15143;DHT22;7672;50.834;6.286;2023-05-29T15:45:40;23.50;94.90
15143;DHT22;7672;50.834;6.286;2023-05-29T15:48:09;23.40;94.80
15143;DHT22;7672;50.834;6.286;2023-05-29T15:50:36;23.40;94.40
15143;DHT22;7672;50.834;6.286;2023-05-29T15:53:03;23.30;94.60
15143;DHT22;7672;50.834;6.286;2023-05-29T15:55:30;23.30;94.70
15143;DHT22;7672;50.834;6.286;2023-05-29T15:57:57;23.30;94.90
15143;DHT22;7672;50.834;6.286;2023-05-29T16:00:24;23.10;94.80
15143;DHT22;7672;50.834;6.286;2023-05-29T16:02:52;23.20;95.00
15143;DHT22;7672;50.834;6.286;2023-05-29T16:05:19;23.10;95.00
15143;DHT22;7672;50.834;6.286;2023-05-29T16:07:46;22.90;94.60
15143;DHT22;7672;50.834;6.286;2023-05-29T16:10:15;22.80;94.90
15143;DHT22;7672;50.834;6.286;2023-05-29T16:12:43;22.90;95.10
15143;DHT22;7672;50.834;6.286;2023-05-29T16:15:20;22.80;95.30
15143;DHT22;7672;50.834;6.286;2023-05-29T16:17:47;22.80;94.90
15143;DHT22;7672;50.834;6.286;2023-05-29T16:20:14;22.70;94.80
15143;DHT22;7672;50.834;6.286;2023-05-29T16:22:42;22.70;95.10